Time;durP1;ratioP1;P1;durP2;ratioP2;P2;SDS_P1;SDS_P2;PMS_P1;PMS_P2;Temp;Humidity;BMP_temperature;BMP_pressure;BME280_temperature;BME280_humidity;BME280_pressure;Samples;Min_cycle;Max_cycle;Signal;HPM_P1;HPM_P2
2021/08/13 00:03:01;;;;;;;19.03;10.40;;;;;;;17.29;59.75;99696.98;263523;1092;115451;-63
2021/08/13 00:08:06;;;;;;;18.98;9.70;;;;;;;17.22;60.10;99699.30;262992;1092;114971;-58
2021/08/13 00:13:09;;;;;;;14.95;8.85;;;;;;;17.19;60.24;99694.16;263722;1093;115162;-65
2021/08/13 00:18:13;;;;;;;13.53;8.97;;;;;;;17.16;59.97;99693.55;263589;1092;115541;-63
2021/08/13 00:23:17;;;;;;;16.97;8.60;;;;;;;17.14;60.41;99704.41;263085;1092;115462;-63
2021/08/13 00:28:20;;;;;;;16.57;9.10;;;;;;;17.10;60.35;99708.33;262993;1092;116048;-64
2021/08/13 00:33:24;;;;;;;14.60;8.25;;;;;;;17.08;60.38;99712.11;263491;1093;115155;-66
2021/08/13 00:38:28;;;;;;;17.15;9.13;;;;;;;17.05;60.71;99706.97;263625;1092;115019;-64
2021/08/13 00:43:32;;;;;;;19.43;9.15;;;;;;;17.01;60.74;99711.73;262730;1093;115942;-66
2021/08/13 00:48:38;;;;;;;14.38;7.90;;;;;;;16.97;60.90;99718.33;263418;1093;115414;-63
2021/08/13 00:53:50;;;;;;;13.80;7.90;;;;;;;16.95;60.66;99712.20;263353;1092;115173;-62
2021/08/13 00:58:54;;;;;;;13.63;8.45;;;;;;;16.95;61.02;99704.13;263418;1093;115676;-67
2021/08/13 01:04:24;;;;;;;16.20;8.23;;;;;;;16.95;61.22;99715.77;263518;1093;115426;-63
2021/08/13 01:09:30;;;;;;;17.43;7.73;;;;;;;16.92;61.34;99723.22;262812;1093;115232;-64
2021/08/13 01:15:11;;;;;;;12.57;8.00;;;;;;;16.87;60.98;99720.02;262848;1092;114952;-62
2021/08/13 01:20:24;;;;;;;14.68;8.05;;;;;;;16.77;60.88;99712.64;262462;1092;115720;-60
2021/08/13 01:25:33;;;;;;;14.47;7.90;;;;;;;16.70;60.93;99706.00;263312;1092;115568;-61
2021/08/13 01:30:39;;;;;;;13.13;6.60;;;;;;;16.66;61.22;99707.22;262507;1091;115482;-61
2021/08/13 01:35:46;;;;;;;11.97;6.20;;;;;;;16.60;61.02;99713.05;263286;1092;115273;-62
2021/08/13 01:41:00;;;;;;;12.33;7.07;;;;;;;16.58;61.09;99712.33;263317;1092;116931;-63
2021/08/13 01:46:06;;;;;;;;;;;;;;;16.55;61.16;99709.88;263250;1092;115795;-63
2021/08/13 01:51:18;;;;;;;10.03;6.43;;;;;;;16.48;61.41;99717.55;263383;1093;101474;-62
2021/08/13 01:56:26;;;;;;;9.80;6.40;;;;;;;16.45;61.13;99716.92;263345;1092;115387;-67
2021/08/13 02:01:31;;;;;;;11.40;6.30;;;;;;;16.41;61.46;99718.13;263462;1092;115102;-61
2021/08/13 02:06:36;;;;;;;13.87;6.90;;;;;;;16.35;61.47;99714.06;263431;1092;115364;-61
2021/08/13 02:11:47;;;;;;;8.90;5.97;;;;;;;16.33;61.60;99708.79;263232;1092;115241;-63
2021/08/13 02:16:55;;;;;;;12.18;6.70;;;;;;;16.35;61.54;99710.52;262757;1092;115730;-62
2021/08/13 02:22:04;;;;;;;8.60;6.07;;;;;;;16.35;61.91;99710.52;263009;1092;115794;-61
2021/08/13 02:27:08;;;;;;;12.80;6.60;;;;;;;16.32;61.71;99706.23;263427;1092;114664;-62
2021/08/13 02:32:13;;;;;;;14.68;6.70;;;;;;;16.28;61.88;99707.44;262530;1092;115756;-60
2021/08/13 02:37:30;;;;;;;13.15;6.83;;;;;;;16.21;61.66;99715.09;263395;1092;114736;-62
2021/08/13 02:42:53;;;;;;;13.00;6.87;;;;;;;16.15;61.83;99715.55;263742;1093;115193;-59
2021/08/13 02:48:00;;;;;;;12.00;6.57;;;;;;;16.07;61.76;99716.13;263246;1092;115219;-62
2021/08/13 02:53:10;;;;;;;14.07;6.20;;;;;;;16.01;62.21;99713.88;263085;1093;115429;-68
2021/08/13 02:58:17;;;;;;;9.83;6.17;;;;;;;15.99;62.18;99720.33;263524;1092;115700;-66
2021/08/13 03:03:23;;;;;;;10.95;6.70;;;;;;;16.01;62.56;99719.25;263325;1093;115475;-59
2021/08/13 03:08:27;;;;;;;11.65;6.83;;;;;;;16.04;62.66;99718.18;263224;1093;115736;-60
2021/08/13 03:13:32;;;;;;;13.03;7.00;;;;;;;16.04;62.59;99713.66;263316;1093;115260;-58
2021/08/13 03:18:41;;;;;;;16.13;7.63;;;;;;;16.02;62.78;99714.73;262983;1092;115385;-60
2021/08/13 03:23:45;;;;;;;16.80;7.00;;;;;;;15.97;62.64;99714.23;263345;1092;115397;-61
2021/08/13 03:28:49;;;;;;;14.98;7.13;;;;;;;15.92;62.79;99711.02;263104;1092;116025;-63
2021/08/13 03:33:53;;;;;;;16.80;7.30;;;;;;;15.88;62.63;99702.33;263454;1092;115256;-68
2021/08/13 03:38:57;;;;;;;13.63;6.20;;;;;;;15.90;62.84;99697.72;263566;1093;115084;-61
2021/08/13 03:44:02;;;;;;;12.53;6.70;;;;;;;15.90;62.83;99702.23;263550;1092;115303;-67
2021/08/13 03:49:06;;;;;;;11.38;6.63;;;;;;;15.91;62.86;99703.94;263138;1092;115381;-64
2021/08/13 03:54:10;;;;;;;12.63;6.40;;;;;;;15.88;62.91;99715.75;263756;1092;115321;-60
2021/08/13 03:59:15;;;;;;;9.68;6.50;;;;;;;15.87;62.74;99721.25;263329;1093;115270;-61
2021/08/13 04:04:18;;;;;;;153.20;119.68;;;;;;;16.38;65.26;99718.36;262857;1091;115161;-60
2021/08/13 04:09:22;;;;;;;17.33;11.57;;;;;;;17.04;64.49;99724.94;263131;1092;115699;-62
2021/08/13 04:14:26;;;;;;;32.67;24.83;;;;;;;17.57;64.09;99709.09;263398;1093;117232;-62
2021/08/13 04:19:31;;;;;;;29.40;20.77;;;;;;;18.26;63.99;99697.23;262850;1092;115466;-63
2021/08/13 04:24:37;;;;;;;20.98;13.10;;;;;;;18.86;62.67;99693.91;263546;1093;116341;-62
2021/08/13 04:29:41;;;;;;;151.57;109.70;;;;;;;19.15;61.57;99691.37;263631;1092;115455;-65
2021/08/13 04:34:45;;;;;;;17.83;11.70;;;;;;;19.26;60.33;99693.16;263401;1092;115883;-66
2021/08/13 04:39:52;;;;;;;21.90;13.87;;;;;;;19.26;60.41;99694.97;263479;1093;115856;-63
2021/08/13 04:44:55;;;;;;;17.55;12.73;;;;;;;19.31;60.16;99696.29;263515;1092;116513;-65
2021/08/13 04:50:13;;;;;;;18.37;10.47;;;;;;;19.53;60.13;99703.36;263487;1092;115402;-62
2021/08/13 04:55:19;;;;;;;;;;;;;;;19.67;59.70;99707.56;263346;1092;115941;-62
2021/08/13 05:00:23;;;;;;;58.50;21.43;;;;;;;19.50;59.38;99710.88;263540;1092;102234;-63
2021/08/13 05:05:30;;;;;;;28.30;15.30;;;;;;;19.66;59.77;99711.23;263274;1092;115252;-62
2021/08/13 05:10:34;;;;;;;30.18;13.68;;;;;;;19.85;59.82;99710.46;262733;1092;115585;-63
2021/08/13 05:15:38;;;;;;;98.55;67.48;;;;;;;20.00;59.39;99703.66;263471;1092;116262;-62
2021/08/13 05:20:42;;;;;;;406.90;291.35;;;;;;;20.00;58.46;99710.91;263418;1093;116444;-62
2021/08/13 05:25:48;;;;;;;63.25;42.75;;;;;;;19.80;58.48;99712.70;263431;1093;115866;-62
2021/08/13 05:30:56;;;;;;;19.30;11.70;;;;;;;19.72;58.25;99720.65;263496;1093;115724;-62
2021/08/13 05:36:00;;;;;;;25.80;17.48;;;;;;;19.69;58.80;99726.32;263409;1092;115488;-64
2021/08/13 05:41:05;;;;;;;24.30;12.88;;;;;;;19.61;58.30;99732.38;263197;1093;115823;-62
2021/08/13 05:46:09;;;;;;;28.93;17.13;;;;;;;19.72;59.29;99735.00;263227;1092;115564;-64
2021/08/13 05:51:13;;;;;;;16.28;11.48;;;;;;;20.01;59.14;99727.00;263079;1092;115363;-61
2021/08/13 05:56:16;;;;;;;38.70;15.83;;;;;;;20.14;59.29;99724.02;262993;1092;115332;-64
2021/08/13 06:01:20;;;;;;;21.85;11.93;;;;;;;20.37;58.91;99721.08;263432;1092;115171;-64
2021/08/13 06:06:26;;;;;;;20.25;10.30;;;;;;;20.09;58.00;99729.85;262488;1093;115349;-66
2021/08/13 06:11:30;;;;;;;22.85;11.00;;;;;;;19.78;58.15;99731.77;263297;1093;115833;-65
2021/08/13 06:16:34;;;;;;;20.65;10.50;;;;;;;19.56;58.47;99729.22;263474;1093;115174;-63
2021/08/13 06:21:38;;;;;;;21.58;11.28;;;;;;;19.44;58.79;99736.56;263534;1092;115367;-63
2021/08/13 06:26:42;;;;;;;23.43;12.80;;;;;;;19.40;59.43;99731.58;263419;1092;115406;-66
2021/08/13 06:31:47;;;;;;;25.90;11.60;;;;;;;19.47;59.76;99735.45;263261;1092;115425;-65
2021/08/13 06:36:54;;;;;;;18.33;11.73;;;;;;;19.51;59.98;99729.63;262868;1092;115682;-63
2021/08/13 06:41:59;;;;;;;113.03;81.17;;;;;;;19.60;60.50;99738.78;262952;1093;115405;-65
2021/08/13 06:47:05;;;;;;;32.90;20.50;;;;;;;19.60;60.26;99727.98;263393;1093;115572;-63
2021/08/13 06:52:10;;;;;;;23.30;12.63;;;;;;;19.58;60.50;99733.50;263371;1093;115662;-62
2021/08/13 06:57:16;;;;;;;17.33;11.73;;;;;;;19.61;60.63;99729.68;263448;1092;115887;-62
2021/08/13 07:02:20;;;;;;;32.48;17.90;;;;;;;19.70;60.79;99723.50;263409;1093;115436;-61
2021/08/13 07:07:24;;;;;;;24.57;15.37;;;;;;;19.83;60.87;99728.64;263096;1093;115261;-62
2021/08/13 07:12:28;;;;;;;24.05;13.30;;;;;;;19.96;60.93;99725.70;262992;1093;116086;-64
2021/08/13 07:17:33;;;;;;;23.48;13.25;;;;;;;20.03;60.85;99714.19;263164;1092;115188;-66
2021/08/13 07:22:40;;;;;;;54.25;38.90;;;;;;;20.23;61.05;99708.83;262674;1092;115463;-63
2021/08/13 07:27:44;;;;;;;22.65;12.88;;;;;;;20.27;60.65;99704.84;263436;1093;114914;-63
2021/08/13 07:32:51;;;;;;;24.93;12.63;;;;;;;20.31;60.62;99720.66;262733;1092;115481;-61
2021/08/13 07:37:54;;;;;;;31.97;15.97;;;;;;;20.38;60.61;99714.66;263259;1092;115341;-62
2021/08/13 07:42:58;;;;;;;21.47;10.90;;;;;;;20.46;60.66;99718.38;263492;1091;115249;-62
2021/08/13 07:48:03;;;;;;;83.83;60.65;;;;;;;20.66;60.41;99713.02;263118;1092;115109;-61
2021/08/13 07:53:07;;;;;;;45.03;24.13;;;;;;;20.76;60.78;99709.30;263524;1092;115573;-61
2021/08/13 07:58:11;;;;;;;40.38;16.95;;;;;;;20.87;60.21;99702.88;263458;1092;115757;-63
2021/08/13 08:03:15;;;;;;;;;;;;;;;20.92;60.00;99708.72;263604;1093;115540;-63
2021/08/13 08:08:19;;;;;;;28.30;12.27;;;;;;;21.01;60.39;99709.69;263665;1092;104871;-61
2021/08/13 08:13:23;;;;;;;32.55;13.10;;;;;;;21.10;60.13;99706.11;263279;1092;115503;-62
2021/08/13 08:18:27;;;;;;;37.38;15.25;;;;;;;21.21;60.09;99705.09;263347;1093;115941;-64
2021/08/13 08:23:30;;;;;;;27.63;14.67;;;;;;;21.29;59.47;99704.34;263317;1093;115484;-60
2021/08/13 08:28:34;;;;;;;24.35;14.13;;;;;;;21.38;59.58;99715.17;262107;1092;115717;-63
2021/08/13 08:33:38;;;;;;;42.50;14.80;;;;;;;21.46;59.59;99715.28;263584;1092;114939;-62
2021/08/13 08:38:42;;;;;;;36.13;14.00;;;;;;;21.62;59.44;99713.81;263341;1092;115378;-61
2021/08/13 08:43:49;;;;;;;41.50;18.50;;;;;;;21.80;59.22;99722.83;263292;1092;116800;-60
2021/08/13 08:48:53;;;;;;;44.90;23.20;;;;;;;22.00;59.30;99718.16;263118;1093;116289;-65
2021/08/13 08:53:58;;;;;;;56.83;38.10;;;;;;;22.17;58.87;99728.22;263445;1092;115646;-61
2021/08/13 08:59:02;;;;;;;16.40;11.20;;;;;;;22.31;58.38;99729.55;263712;1093;115549;-65
2021/08/13 09:04:06;;;;;;;28.33;14.40;;;;;;;22.39;57.77;99734.23;241200;1093;15001946;-62
2021/08/13 09:09:10;;;;;;;24.90;14.70;;;;;;;22.50;57.97;99736.71;262724;1092;116840;-64
2021/08/13 09:14:14;;;;;;;;;;;;;;;22.58;57.44;99727.79;262740;1092;115359;-65
2021/08/13 09:19:35;;;;;;;12.73;7.70;;;;;;;22.62;57.53;99721.03;263127;1092;101513;-65
2021/08/13 09:24:40;;;;;;;18.53;7.67;;;;;;;22.69;57.43;99724.86;262415;1093;114986;-65
2021/08/13 09:30:05;;;;;;;52.30;37.87;;;;;;;22.75;57.36;99723.36;262653;1093;115857;-63
2021/08/13 09:35:14;;;;;;;11.40;7.43;;;;;;;22.86;57.23;99715.84;262733;1093;115376;-67
2021/08/13 09:40:18;;;;;;;14.23;6.85;;;;;;;22.97;57.06;99716.64;263197;1092;115511;-65
2021/08/13 09:45:21;;;;;;;10.53;6.40;;;;;;;23.06;57.33;99716.55;263293;1092;114859;-65
2021/08/13 09:50:39;;;;;;;11.53;6.85;;;;;;;23.18;56.78;99721.70;263075;1092;116696;-66
2021/08/13 09:55:44;;;;;;;14.70;6.20;;;;;;;23.28;56.92;99726.02;263155;1092;115081;-67
2021/08/13 10:00:50;;;;;;;9.97;5.47;;;;;;;23.43;57.11;99722.70;263047;1093;114860;-64
2021/08/13 10:06:03;;;;;;;21.87;6.87;;;;;;;23.56;56.95;99713.09;263115;1092;115249;-66
2021/08/13 10:11:13;;;;;;;20.67;12.93;;;;;;;23.70;56.36;99713.53;262966;1093;115668;-65
2021/08/13 10:16:28;;;;;;;13.10;5.70;;;;;;;23.84;56.18;99708.34;263196;1092;115459;-66
2021/08/13 10:21:38;;;;;;;7.00;4.50;;;;;;;23.99;55.80;99710.44;263092;1093;117666;-65
2021/08/13 10:26:44;;;;;;;6.63;3.80;;;;;;;24.15;54.67;99713.20;263163;1092;115098;-67
2021/08/13 10:31:49;;;;;;;6.03;3.63;;;;;;;24.34;54.20;99703.03;262940;1092;115514;-68
2021/08/13 10:36:54;;;;;;;4.13;3.43;;;;;;;24.55;53.90;99700.70;263132;1092;115509;-65
2021/08/13 10:42:01;;;;;;;8.20;4.10;;;;;;;24.78;53.66;99695.44;262689;1093;114772;-67
2021/08/13 10:47:12;;;;;;;7.40;4.40;;;;;;;24.97;53.31;99686.09;263149;1092;115113;-64
2021/08/13 10:52:40;;;;;;;8.37;4.53;;;;;;;25.17;53.27;99695.63;262167;1091;115107;-68
2021/08/13 10:57:55;;;;;;;7.98;4.75;;;;;;;25.34;52.71;99682.81;262936;1091;115005;-68
2021/08/13 11:03:19;;;;;;;8.00;4.70;;;;;;;25.52;52.76;99674.41;262847;1092;115181;-66
2021/08/13 11:08:47;;;;;;;8.10;4.23;;;;;;;25.57;52.08;99676.59;263128;1093;115312;-67
2021/08/13 11:13:51;;;;;;;14.43;7.17;;;;;;;25.73;52.75;99669.20;263163;1092;114901;-63
2021/08/13 11:19:01;;;;;;;11.70;6.33;;;;;;;25.90;52.10;99659.09;263172;1093;115213;-62
2021/08/13 11:24:09;;;;;;;12.40;5.80;;;;;;;26.02;51.56;99654.09;263195;1092;115416;-64
2021/08/13 11:29:29;;;;;;;108.37;91.53;;;;;;;26.12;52.00;99662.90;263154;1093;115192;-64
2021/08/13 11:35:05;;;;;;;18.07;10.53;;;;;;;26.27;51.95;99654.77;263218;1092;116257;-63
2021/08/13 11:40:13;;;;;;;13.40;5.83;;;;;;;26.45;51.82;99653.63;263384;1093;115140;-62
2021/08/13 11:45:32;;;;;;;9.47;5.10;;;;;;;26.73;51.70;99646.58;263192;1092;115869;-63
2021/08/13 11:50:37;;;;;;;7.77;4.37;;;;;;;27.00;51.01;99636.08;263192;1092;115364;-62
2021/08/13 11:55:41;;;;;;;9.75;4.58;;;;;;;27.25;50.35;99642.19;263184;1092;115298;-63
2021/08/13 12:00:45;;;;;;;8.93;4.33;;;;;;;27.50;49.89;99632.64;263209;1092;115570;-62
2021/08/13 12:05:49;;;;;;;7.20;4.85;;;;;;;27.70;49.23;99637.53;263197;1092;115057;-63
2021/08/13 12:10:54;;;;;;;10.98;5.45;;;;;;;27.86;49.09;99629.14;263112;1092;115042;-64
2021/08/13 12:16:04;;;;;;;7.73;4.50;;;;;;;27.99;48.61;99626.55;263122;1093;115697;-62
2021/08/13 12:21:10;;;;;;;5.93;4.90;;;;;;;28.19;48.08;99620.42;262888;1092;115958;-63
2021/08/13 12:26:24;;;;;;;7.57;4.33;;;;;;;28.42;48.22;99615.63;263207;1093;115319;-63
2021/08/13 12:31:28;;;;;;;6.18;4.38;;;;;;;28.64;47.86;99610.16;263132;1093;114726;-63
2021/08/13 12:36:32;;;;;;;7.00;4.80;;;;;;;28.78;47.45;99611.11;262410;1092;115555;-62
2021/08/13 12:41:36;;;;;;;;;;;;;;;28.62;47.01;99606.75;263168;1093;115018;-63
2021/08/13 12:46:40;;;;;;;44.23;8.90;;;;;;;28.50;47.09;99599.09;263274;1093;101461;-63
2021/08/13 12:51:45;;;;;;;14.33;4.50;;;;;;;28.69;47.81;99594.80;263138;1091;115028;-62
2021/08/13 12:56:59;;;;;;;6.40;4.27;;;;;;;28.93;47.06;99596.23;262936;1092;114899;-62
2021/08/13 13:02:03;;;;;;;;;;;;;;;29.23;46.61;99583.17;263267;1092;115068;-63
2021/08/13 13:07:09;;;;;;;5.57;3.73;;;;;;;29.51;45.71;99592.38;263237;1093;102157;-62
2021/08/13 13:12:22;;;;;;;5.23;3.70;;;;;;;29.70;45.29;99577.93;263197;1093;115267;-62
2021/08/13 13:17:28;;;;;;;4.40;3.63;;;;;;;29.93;44.52;99581.17;262900;1093;115304;-62
2021/08/13 13:22:35;;;;;;;7.03;3.60;;;;;;;30.18;44.45;99586.09;262894;1093;115492;-62
2021/08/13 13:27:48;;;;;;;6.83;4.30;;;;;;;30.46;43.84;99577.66;263266;1093;115588;-62
2021/08/13 13:33:24;;;;;;;5.40;3.83;;;;;;;30.78;43.63;99578.75;263279;1092;114960;-61
2021/08/13 13:38:53;;;;;;;9.73;4.10;;;;;;;31.03;42.62;99570.67;263151;1092;115095;-62
2021/08/13 13:43:58;;;;;;;3.97;3.40;;;;;;;31.23;42.25;99559.62;262748;1092;115609;-62
2021/08/13 13:49:03;;;;;;;5.60;3.90;;;;;;;31.43;41.94;99561.49;263285;1093;115178;-62
2021/08/13 13:54:08;;;;;;;8.63;4.00;;;;;;;31.44;41.81;99558.50;263110;1092;115139;-61
2021/08/13 13:59:13;;;;;;;7.23;4.37;;;;;;;31.36;41.20;99549.67;263122;1093;115413;-61
2021/08/13 14:04:17;;;;;;;8.55;4.00;;;;;;;31.23;41.02;99543.11;263140;1093;115435;-62
2021/08/13 14:09:21;;;;;;;4.33;3.60;;;;;;;31.17;40.91;99538.47;262673;1092;114981;-62
2021/08/13 14:14:25;;;;;;;7.77;4.00;;;;;;;31.14;40.79;99530.66;263051;1092;114747;-61
2021/08/13 14:19:29;;;;;;;9.57;4.20;;;;;;;31.11;41.08;99531.08;263107;1092;115207;-62
2021/08/13 14:24:32;;;;;;;;;;;;;;;31.07;40.98;99521.59;262409;1093;114915;-61
2021/08/13 14:29:36;;;;;;;14.10;11.57;;;;;;;30.89;41.19;99527.77;263241;1093;102028;-61
2021/08/13 14:34:40;;;;;;;;;;;;;;;30.67;40.95;99521.64;262796;1093;115325;-59
2021/08/13 14:39:47;;;;;;;6.70;4.47;;;;;;;30.39;40.56;99524.63;263188;1092;101658;-62
2021/08/13 14:44:51;;;;;;;11.50;5.33;;;;;;;30.03;40.69;99525.87;263140;1092;115371;-61
2021/08/13 14:49:55;;;;;;;;;;;;;;;29.72;40.77;99520.94;262748;1092;115389;-60
2021/08/13 14:55:00;;;;;;;;;;;;;;;29.38;40.96;99516.36;263222;1092;102415;-61
2021/08/13 15:00:06;;;;;;;9.08;4.93;;;;;;;29.07;41.29;99516.87;263156;1093;104176;-62
2021/08/13 15:05:10;;;;;;;8.77;4.70;;;;;;;28.79;41.62;99505.94;263065;1092;114730;-61
2021/08/13 15:10:14;;;;;;;11.07;4.60;;;;;;;28.52;41.99;99503.86;262143;1093;115744;-58
2021/08/13 15:15:27;;;;;;;9.90;4.67;;;;;;;28.31;42.11;99501.15;262211;1093;115596;-60
2021/08/13 15:20:45;;;;;;;217.47;163.77;;;;;;;28.10;42.22;99498.45;261768;1091;115200;-60
2021/08/13 15:26:12;;;;;;;13.13;8.77;;;;;;;27.89;42.69;99496.55;262156;1092;116207;-57
2021/08/13 15:31:34;;;;;;;8.13;5.97;;;;;;;27.73;43.20;99489.44;262800;1092;115652;-61
2021/08/13 15:36:39;;;;;;;5.58;4.65;;;;;;;27.59;42.99;99478.36;263053;1092;115172;-60
2021/08/13 15:41:43;;;;;;;6.60;4.30;;;;;;;27.47;43.73;99488.11;263136;1092;114632;-60
2021/08/13 15:46:46;;;;;;;8.95;5.40;;;;;;;27.36;43.42;99485.88;262802;1093;115753;-60
2021/08/13 15:51:50;;;;;;;8.63;4.43;;;;;;;27.25;43.92;99480.92;263091;1092;115320;-61
2021/08/13 15:56:54;;;;;;;6.23;4.05;;;;;;;27.15;44.37;99477.65;263115;1092;114656;-60
2021/08/13 16:01:58;;;;;;;;;;;;;;;27.08;44.58;99477.53;263130;1092;114859;-61
2021/08/13 16:07:02;;;;;;;8.27;4.50;;;;;;;26.97;44.97;99481.60;263134;1092;102027;-61
2021/08/13 16:12:09;;;;;;;7.67;4.60;;;;;;;26.87;44.76;99472.85;263289;1092;115207;-63
2021/08/13 16:17:12;;;;;;;8.47;5.13;;;;;;;26.79;45.25;99475.66;263106;1092;115743;-62
2021/08/13 16:22:16;;;;;;;7.40;4.58;;;;;;;26.74;45.29;99476.23;263145;1093;115426;-63
2021/08/13 16:27:19;;;;;;;8.13;5.33;;;;;;;26.70;45.38;99468.59;263204;1093;115982;-62
2021/08/13 16:32:23;;;;;;;20.78;15.58;;;;;;;26.64;45.35;99473.79;262819;1092;115484;-62
2021/08/13 16:37:26;;;;;;;19.65;14.93;;;;;;;26.59;45.17;99468.03;263100;1092;115969;-62
2021/08/13 16:42:30;;;;;;;18.30;12.27;;;;;;;26.52;45.58;99469.81;263155;1092;115331;-63
2021/08/13 16:47:33;;;;;;;12.90;10.23;;;;;;;26.42;46.11;99467.33;263223;1092;116519;-64
2021/08/13 16:52:38;;;;;;;10.95;6.60;;;;;;;26.33;45.97;99462.16;263070;1092;115457;-62
2021/08/13 16:57:41;;;;;;;;;;;;;;;26.26;46.14;99466.67;263279;1093;115254;-64
2021/08/13 17:02:45;;;;;;;10.03;5.50;;;;;;;26.19;46.28;99463.84;263233;1093;102312;-62
2021/08/13 17:07:49;;;;;;;564.10;484.08;;;;;;;26.13;46.69;99465.42;263115;1092;115505;-61
2021/08/13 17:12:54;;;;;;;145.43;120.37;;;;;;;26.12;46.79;99468.31;263064;1092;115923;-63
2021/08/13 17:17:58;;;;;;;57.55;47.00;;;;;;;26.09;46.92;99477.73;263103;1092;116006;-63
2021/08/13 17:23:02;;;;;;;62.40;47.95;;;;;;;26.05;47.59;99470.09;263181;1092;115918;-63
2021/08/13 17:28:05;;;;;;;;;;;;;;;25.99;47.48;99473.58;263234;1093;115792;-63
2021/08/13 17:33:09;;;;;;;46.77;39.87;;;;;;;25.93;47.76;99480.60;263221;1092;102389;-62
2021/08/13 17:38:13;;;;;;;;;;;;;;;25.87;47.86;99484.05;263176;1093;115110;-63
2021/08/13 17:43:17;;;;;;;23.30;17.60;;;;;;;25.78;48.16;99485.98;263133;1093;101576;-62
2021/08/13 17:48:20;;;;;;;21.43;15.68;;;;;;;25.68;47.98;99488.11;263193;1092;116037;-62
2021/08/13 17:53:24;;;;;;;18.95;10.70;;;;;;;25.55;48.87;99488.70;263196;1093;117159;-62
2021/08/13 17:58:31;;;;;;;14.07;8.87;;;;;;;25.47;49.05;99497.75;263136;1093;115799;-63
2021/08/13 18:03:37;;;;;;;209.33;162.50;;;;;;;25.39;49.41;99499.69;263154;1093;115731;-62
2021/08/13 18:08:41;;;;;;;48.33;35.70;;;;;;;25.37;49.65;99496.28;263048;1092;115956;-62
2021/08/13 18:13:44;;;;;;;20.78;14.03;;;;;;;25.33;49.83;99495.80;263173;1093;115539;-62
2021/08/13 18:18:48;;;;;;;16.88;9.85;;;;;;;25.24;49.86;99502.34;263028;1093;115487;-62
2021/08/13 18:23:52;;;;;;;310.80;266.38;;;;;;;25.14;50.48;99505.28;263112;1092;115296;-62
2021/08/13 18:28:55;;;;;;;34.90;26.70;;;;;;;25.09;50.49;99510.36;263093;1093;117079;-60
2021/08/13 18:33:59;;;;;;;79.43;64.35;;;;;;;25.04;50.74;99501.89;263249;1092;117233;-61
2021/08/13 18:39:04;;;;;;;42.13;34.88;;;;;;;25.00;51.04;99501.39;263099;1091;115288;-62
2021/08/13 18:44:08;;;;;;;16.57;8.83;;;;;;;24.94;51.33;99495.80;263122;1093;116963;-62
2021/08/13 18:49:11;;;;;;;96.65;74.80;;;;;;;24.92;51.81;99498.69;263098;1093;115861;-63
2021/08/13 18:54:15;;;;;;;92.72;78.70;;;;;;;24.92;51.84;99493.23;263298;1092;115681;-62
2021/08/13 18:59:19;;;;;;;38.15;17.28;;;;;;;24.94;52.70;99498.52;263115;1092;115277;-65
2021/08/13 19:04:22;;;;;;;15.25;10.55;;;;;;;24.91;52.46;99496.99;263191;1092;115826;-62
2021/08/13 19:09:26;;;;;;;53.60;35.65;;;;;;;24.89;52.71;99499.03;263287;1092;115602;-62
2021/08/13 19:14:29;;;;;;;69.78;58.60;;;;;;;24.88;52.82;99507.39;263239;1093;116311;-64
2021/08/13 19:19:33;;;;;;;22.13;15.75;;;;;;;24.87;53.04;99502.98;263158;1092;115273;-63
2021/08/13 19:24:39;;;;;;;27.25;18.05;;;;;;;24.82;52.66;99502.64;263095;1092;115563;-63
2021/08/13 19:29:43;;;;;;;30.43;14.80;;;;;;;24.76;53.36;99505.05;263074;1093;115937;-61
2021/08/13 19:34:47;;;;;;;27.68;13.83;;;;;;;24.71;53.50;99492.98;261963;1092;115906;-60
2021/08/13 19:39:50;;;;;;;110.20;32.88;;;;;;;24.67;53.70;99495.20;263030;1093;115710;-63
2021/08/13 19:44:54;;;;;;;523.45;461.55;;;;;;;24.61;54.00;99503.22;263130;1092;116754;-60
2021/08/13 19:49:58;;;;;;;50.13;37.10;;;;;;;24.54;54.11;99500.34;263017;1092;115969;-64
2021/08/13 19:55:01;;;;;;;35.15;18.63;;;;;;;24.35;53.88;99489.80;263108;1092;115707;-62
2021/08/13 20:00:07;;;;;;;37.60;26.13;;;;;;;24.15;54.25;99490.18;262756;1093;115686;-66
2021/08/13 20:05:17;;;;;;;17.07;10.83;;;;;;;23.97;54.34;99497.64;263149;1093;115209;-65
2021/08/13 20:10:21;;;;;;;17.93;10.63;;;;;;;23.80;54.85;99499.51;263152;1092;115612;-63
2021/08/13 20:15:25;;;;;;;18.13;9.53;;;;;;;23.64;55.07;99494.89;263221;1093;115556;-62
2021/08/13 20:20:29;;;;;;;32.13;10.33;;;;;;;23.54;55.47;99500.48;263152;1092;115676;-65
2021/08/13 20:25:32;;;;;;;19.87;10.10;;;;;;;23.47;55.20;99507.60;263162;1092;115821;-61
2021/08/13 20:30:41;;;;;;;23.10;11.00;;;;;;;23.40;55.95;99503.82;263140;1093;116992;-59
2021/08/13 20:35:45;;;;;;;26.38;10.85;;;;;;;23.32;56.05;99501.94;262524;1092;115558;-61
2021/08/13 20:40:49;;;;;;;18.13;10.90;;;;;;;23.24;56.48;99506.52;262853;1093;115412;-62
2021/08/13 20:45:52;;;;;;;21.28;13.18;;;;;;;23.17;56.74;99502.77;263258;1092;115636;-61
2021/08/13 20:50:57;;;;;;;21.68;11.23;;;;;;;23.05;56.91;99500.33;263140;1093;115362;-60
2021/08/13 20:56:00;;;;;;;20.68;10.68;;;;;;;22.93;56.94;99496.22;263199;1092;115149;-62
2021/08/13 21:01:04;;;;;;;15.25;10.03;;;;;;;22.83;57.48;99488.17;263238;1093;115509;-60
2021/08/13 21:06:08;;;;;;;20.25;10.05;;;;;;;22.76;57.36;99492.55;263191;1092;116161;-62
2021/08/13 21:11:12;;;;;;;19.33;10.88;;;;;;;22.73;57.95;99498.30;263140;1093;115887;-60
2021/08/13 21:16:15;;;;;;;19.55;10.95;;;;;;;22.71;58.05;99494.88;263171;1093;115679;-60
2021/08/13 21:21:19;;;;;;;18.33;11.15;;;;;;;22.64;58.21;99483.82;263309;1093;115091;-61
2021/08/13 21:26:23;;;;;;;;;;;;;;;22.58;58.31;99480.90;263150;1093;115271;-61
2021/08/13 21:31:27;;;;;;;18.77;10.13;;;;;;;22.46;58.27;99474.07;263232;1093;101774;-60
2021/08/13 21:36:31;;;;;;;19.85;10.78;;;;;;;22.35;58.61;99481.47;263177;1093;115260;-60
2021/08/13 21:41:36;;;;;;;20.52;9.43;;;;;;;22.28;59.13;99472.27;263042;1093;115899;-64
2021/08/13 21:46:40;;;;;;;20.63;10.17;;;;;;;22.26;59.29;99470.72;262952;1092;114964;-62
2021/08/13 21:51:44;;;;;;;22.50;10.27;;;;;;;22.24;59.65;99468.16;262966;1093;115634;-58
2021/08/13 21:56:48;;;;;;;19.28;9.88;;;;;;;22.23;59.67;99476.45;263167;1093;115519;-59
2021/08/13 22:01:52;;;;;;;18.83;10.48;;;;;;;22.18;59.84;99474.20;263314;1092;115890;-63
2021/08/13 22:06:56;;;;;;;16.38;9.80;;;;;;;22.11;59.97;99475.81;261450;1092;115403;-60
2021/08/13 22:12:02;;;;;;;19.33;10.17;;;;;;;22.00;59.95;99476.08;262902;1092;114848;-61
2021/08/13 22:17:06;;;;;;;15.13;9.50;;;;;;;21.90;60.21;99471.59;261610;1093;116501;-59
2021/08/13 22:22:13;;;;;;;17.43;9.30;;;;;;;21.85;60.25;99460.39;262817;1093;115296;-63
2021/08/13 22:27:17;;;;;;;17.07;9.10;;;;;;;21.81;60.52;99466.30;263334;1092;114828;-59
2021/08/13 22:32:21;;;;;;;15.98;9.30;;;;;;;21.80;60.62;99464.56;262209;1092;115085;-61
2021/08/13 22:37:25;;;;;;;17.03;9.50;;;;;;;21.72;60.61;99463.50;263233;1093;115333;-62
2021/08/13 22:42:30;;;;;;;13.10;9.25;;;;;;;21.62;60.67;99462.73;261785;1092;115404;-64
2021/08/13 22:47:34;;;;;;;24.68;10.08;;;;;;;21.52;60.85;99474.65;262525;1093;114852;-62
2021/08/13 22:52:40;;;;;;;15.33;9.00;;;;;;;21.42;60.99;99475.56;263047;1092;115181;-62
2021/08/13 22:57:44;;;;;;;15.73;8.90;;;;;;;21.37;61.13;99475.19;262779;1092;115182;-63
2021/08/13 23:02:48;;;;;;;13.60;9.50;;;;;;;21.29;61.31;99471.50;261457;1093;115128;-62
2021/08/13 23:07:54;;;;;;;19.47;9.57;;;;;;;21.22;61.51;99479.38;263360;1093;115420;-65
2021/08/13 23:12:59;;;;;;;15.43;9.37;;;;;;;21.14;61.51;99473.89;261458;1091;115379;-63
2021/08/13 23:18:02;;;;;;;;;;;;;;;21.08;61.85;99478.04;263343;1092;115296;-62